createdAt,value
2023-04-01T00:00:21.703Z,9.87
2023-04-01T00:01:24.708Z,9.84
2023-04-01T00:02:27.035Z,9.78
2023-04-01T00:03:31.872Z,9.85
2023-04-01T00:04:34.060Z,9.85
2023-04-01T00:05:38.307Z,9.83
2023-04-01T00:06:40.397Z,9.83
2023-04-01T00:07:43.208Z,9.85
2023-04-01T00:08:45.717Z,9.84
2023-04-01T00:09:48.980Z,9.81
2023-04-01T00:10:52.123Z,9.82
2023-04-01T00:11:54.944Z,9.82
2023-04-01T00:12:56.858Z,9.81
2023-04-01T00:13:59.701Z,9.81
2023-04-01T00:15:02.599Z,9.78
2023-04-01T00:16:17.570Z,9.75
2023-04-01T00:17:22.703Z,9.79
2023-04-01T00:18:26.488Z,9.82
2023-04-01T00:19:30.467Z,9.83
2023-04-01T00:20:32.290Z,9.75
2023-04-01T00:21:36.740Z,9.79
2023-04-01T00:22:38.580Z,9.79
2023-04-01T00:23:41.594Z,9.83
2023-04-01T00:24:43.521Z,9.83
2023-04-01T00:25:48.707Z,9.85
2023-04-01T00:26:50.715Z,9.85
2023-04-01T00:27:53.569Z,9.90
2023-04-01T00:28:56.140Z,9.93
2023-04-01T00:29:58.989Z,9.93
2023-04-01T00:31:06.074Z,9.95
2023-04-01T00:32:09.381Z,9.95
2023-04-01T00:33:11.734Z,9.94
2023-04-01T00:34:14.689Z,9.93
2023-04-01T00:35:16.644Z,9.93
2023-04-01T00:36:22.455Z,9.88
2023-04-01T00:37:25.931Z,9.88
2023-04-01T00:38:28.772Z,9.91
2023-04-01T00:39:31.075Z,9.94
2023-04-01T00:40:36.507Z,9.88
2023-04-01T00:41:38.468Z,9.89
2023-04-01T00:42:41.263Z,9.90
2023-04-01T00:43:44.285Z,9.88
2023-04-01T00:44:50.202Z,9.90
2023-04-01T00:45:52.798Z,9.91
2023-04-01T00:46:55.884Z,9.90
2023-04-01T00:48:01.092Z,10.00
2023-04-01T00:49:04.476Z,9.90
2023-04-01T00:50:07.601Z,9.88
2023-04-01T00:51:13.836Z,9.96
2023-04-01T00:52:20.012Z,9.96
2023-04-01T00:53:25.280Z,9.93
2023-04-01T00:54:29.693Z,9.88
2023-04-01T00:55:35.803Z,9.84
2023-04-01T00:56:41.308Z,9.84
2023-04-01T00:57:46.398Z,9.84
2023-04-01T00:58:51.921Z,9.84
2023-04-01T00:59:56.799Z,9.84
2023-04-01T01:01:00.983Z,9.85
2023-04-01T01:02:04.685Z,9.84
2023-04-01T01:03:06.680Z,9.85
2023-04-01T01:04:22.204Z,9.84
2023-04-01T01:05:34.414Z,9.94
2023-04-01T01:06:53.611Z,9.85
2023-04-01T01:08:05.298Z,9.83
2023-04-01T01:09:27.696Z,9.82
2023-04-01T01:10:34.289Z,9.82
2023-04-01T01:11:43.767Z,9.73
2023-04-01T01:12:50.363Z,9.76
2023-04-01T01:14:04.004Z,9.77
2023-04-01T01:15:13.212Z,9.79
2023-04-01T01:16:22.420Z,9.81
2023-04-01T01:17:34.080Z,9.79
2023-04-01T01:18:42.437Z,9.77
2023-04-01T01:20:00.458Z,9.79
2023-04-01T01:21:31.945Z,9.85
2023-04-01T01:22:46.921Z,9.80
2023-04-01T01:24:11.788Z,9.72
2023-04-01T01:25:33.375Z,9.72
2023-04-01T01:26:50.561Z,9.76
2023-04-01T01:28:00.360Z,9.71
2023-04-01T01:29:14.073Z,9.72
2023-04-01T01:30:44.969Z,9.73
2023-04-01T01:31:58.452Z,9.70
2023-04-01T01:33:15.567Z,9.72
2023-04-01T01:34:24.802Z,9.74
2023-04-01T01:35:32.632Z,9.76
2023-04-01T01:36:36.576Z,9.73
2023-04-01T01:37:43.922Z,9.74
2023-04-01T01:38:49.439Z,9.74
2023-04-01T01:39:55.575Z,9.69
2023-04-01T01:41:00.516Z,9.70
2023-04-01T01:42:06.846Z,9.71
2023-04-01T01:43:14.170Z,9.76
2023-04-01T01:44:17.542Z,9.73
2023-04-01T01:45:23.817Z,9.77
2023-04-01T01:46:30.340Z,9.72
2023-04-01T01:47:34.951Z,9.67
2023-04-01T01:48:40.727Z,9.66
2023-04-01T01:49:44.505Z,9.66
2023-04-01T01:50:50.482Z,9.68
2023-04-01T01:51:53.603Z,9.59
2023-04-01T01:53:04.006Z,9.62
2023-04-01T01:54:06.875Z,9.62
2023-04-01T01:55:27.384Z,9.62
2023-04-01T01:56:32.605Z,9.58
2023-04-01T01:57:37.565Z,9.54
2023-04-01T01:58:46.201Z,9.54
2023-04-01T01:59:55.176Z,9.56
2023-04-01T02:01:05.142Z,9.54
2023-04-01T02:02:09.435Z,9.57
2023-04-01T02:03:14.503Z,9.52
2023-04-01T02:04:18.318Z,9.53
2023-04-01T02:05:25.553Z,9.55
2023-04-01T02:06:35.897Z,9.53
2023-04-01T02:07:40.872Z,9.57
2023-04-01T02:08:47.900Z,9.56
2023-04-01T02:09:49.980Z,9.58
2023-04-01T02:10:58.539Z,9.58
2023-04-01T02:12:06.746Z,9.59
2023-04-01T02:13:21.248Z,9.57
2023-04-01T02:14:26.377Z,9.63
2023-04-01T02:15:34.211Z,9.67
2023-04-01T02:16:41.534Z,9.69
2023-04-01T02:17:47.312Z,9.69
2023-04-01T02:18:51.267Z,9.63
2023-04-01T02:19:57.998Z,9.65
2023-04-01T02:21:01.701Z,9.67
2023-04-01T02:22:11.129Z,9.68
2023-04-01T02:23:14.685Z,9.72
2023-04-01T02:24:17.868Z,9.72
2023-04-01T02:25:23.566Z,9.71
2023-04-01T02:26:28.305Z,9.68
2023-04-01T02:27:31.342Z,9.67
2023-04-01T02:28:35.400Z,9.66
2023-04-01T02:29:37.835Z,9.68
2023-04-01T02:30:45.705Z,9.68
2023-04-01T02:31:51.555Z,9.69
2023-04-01T02:32:56.369Z,9.68
2023-04-01T02:33:58.752Z,9.71
2023-04-01T02:35:04.331Z,9.71
2023-04-01T02:36:07.159Z,9.74
2023-04-01T02:37:13.469Z,9.72
2023-04-01T02:38:16.746Z,9.63
2023-04-01T02:39:20.372Z,9.62
2023-04-01T02:40:22.697Z,9.67
2023-04-01T02:41:25.798Z,9.66
2023-04-01T02:42:27.722Z,9.66
2023-04-01T02:43:30.786Z,9.66
2023-04-01T02:44:32.909Z,9.64
2023-04-01T02:45:35.851Z,9.66
2023-04-01T02:46:38.643Z,9.64
2023-04-01T02:47:41.726Z,9.65
2023-04-01T02:48:44.096Z,9.63
2023-04-01T02:49:46.997Z,9.62
2023-04-01T02:50:48.926Z,9.63
2023-04-01T02:51:52.831Z,9.61
2023-04-01T02:52:57.121Z,9.61
2023-04-01T02:53:59.993Z,9.61
2023-04-01T02:55:02.251Z,9.61
2023-04-01T02:56:06.508Z,9.61
2023-04-01T02:57:08.732Z,9.62
2023-04-01T02:58:11.726Z,9.64
2023-04-01T02:59:13.786Z,9.63
2023-04-01T03:00:18.402Z,9.63
2023-04-01T03:01:20.633Z,9.62
2023-04-01T03:02:23.634Z,9.62
2023-04-01T03:03:26.292Z,9.61
2023-04-01T03:04:29.180Z,9.60
2023-04-01T03:05:31.705Z,9.62
2023-04-01T03:06:34.830Z,9.63
2023-04-01T03:07:36.745Z,9.62
2023-04-01T03:08:41.180Z,9.66
2023-04-01T03:09:43.275Z,9.60
2023-04-01T03:10:46.093Z,9.60
2023-04-01T03:11:47.957Z,9.58
2023-04-01T03:12:51.040Z,9.50
2023-04-01T03:13:53.092Z,9.55
2023-04-01T03:14:56.408Z,9.58
2023-04-01T03:15:59.120Z,9.59
2023-04-01T03:17:02.199Z,9.58
2023-04-01T03:18:04.448Z,9.59
2023-04-01T03:19:07.600Z,9.60
2023-04-01T03:20:11.768Z,9.54
2023-04-01T03:21:16.651Z,9.59
2023-04-01T03:22:21.829Z,9.53
2023-04-01T03:23:25.282Z,9.49
2023-04-01T03:24:28.690Z,9.51
2023-04-01T03:25:32.044Z,9.52
2023-04-01T03:26:34.669Z,9.49
2023-04-01T03:27:37.617Z,9.51
2023-04-01T03:28:39.758Z,9.51
2023-04-01T03:29:43.078Z,9.53
2023-04-01T03:30:46.299Z,9.53
2023-04-01T03:31:48.274Z,9.49
2023-04-01T03:32:51.511Z,9.44
2023-04-01T03:33:53.672Z,9.45
2023-04-01T03:34:56.552Z,9.43
2023-04-01T03:35:59.046Z,9.47
2023-04-01T03:37:01.941Z,9.46
2023-04-01T03:38:04.302Z,9.48
2023-04-01T03:39:07.401Z,9.50
2023-04-01T03:40:17.701Z,9.50
2023-04-01T03:41:20.707Z,9.43
2023-04-01T03:42:23.096Z,9.45
2023-04-01T03:43:26.704Z,9.46
2023-04-01T03:44:32.455Z,9.48
2023-04-01T03:45:35.470Z,9.49
2023-04-01T03:46:37.760Z,9.51
2023-04-01T03:48:43.908Z,9.52
2023-04-01T03:49:46.744Z,9.56
2023-04-01T03:50:48.711Z,9.54
2023-04-01T03:51:51.589Z,9.55
2023-04-01T03:52:53.875Z,9.54
2023-04-01T03:53:56.821Z,9.55
2023-04-01T03:54:58.714Z,9.56
2023-04-01T03:56:07.062Z,9.57
2023-04-01T03:57:12.037Z,9.58
2023-04-01T03:58:14.332Z,9.56
2023-04-01T03:59:17.662Z,9.56
2023-04-01T04:00:20.364Z,9.57
2023-04-01T04:01:30.506Z,9.52
2023-04-01T04:02:32.961Z,9.53
2023-04-01T04:03:36.092Z,9.53
2023-04-01T04:04:38.001Z,9.52
2023-04-01T04:05:48.884Z,9.54
2023-04-01T04:06:52.149Z,9.53
2023-04-01T04:07:57.122Z,9.51
2023-04-01T04:08:59.477Z,9.50
2023-04-01T04:10:04.318Z,9.50
2023-04-01T04:11:08.049Z,9.51
2023-04-01T04:12:13.116Z,9.47
2023-04-01T04:13:14.994Z,9.43
2023-04-01T04:14:25.874Z,9.43
2023-04-01T04:15:27.811Z,9.45
2023-04-01T04:16:30.869Z,9.45
2023-04-01T04:17:36.570Z,9.44
2023-04-01T04:18:39.792Z,9.45
2023-04-01T04:19:41.884Z,9.48
2023-04-01T04:20:48.106Z,9.50
2023-04-01T04:21:50.936Z,9.50
2023-04-01T04:22:53.390Z,9.52
2023-04-01T04:23:56.227Z,9.52
2023-04-01T04:24:58.093Z,9.54
2023-04-01T04:26:02.739Z,9.54
2023-04-01T04:27:07.443Z,9.54
2023-04-01T04:28:11.907Z,9.54
2023-04-01T04:29:15.240Z,9.55
2023-04-01T04:30:17.821Z,9.55
2023-04-01T04:31:22.323Z,9.50
2023-04-01T04:32:25.498Z,9.51
2023-04-01T04:33:28.889Z,9.50
2023-04-01T04:34:31.057Z,9.51
2023-04-01T04:35:35.109Z,9.50
2023-04-01T04:36:37.526Z,9.45
2023-04-01T04:37:40.560Z,9.36
2023-04-01T04:38:42.735Z,9.39
2023-04-01T04:39:45.730Z,9.39
2023-04-01T04:40:48.177Z,9.39
2023-04-01T04:41:51.504Z,9.43
2023-04-01T04:42:57.556Z,9.39
2023-04-01T04:44:00.550Z,9.37
2023-04-01T04:45:02.391Z,9.38
2023-04-01T04:46:07.161Z,9.38
2023-04-01T04:47:09.196Z,9.36
2023-04-01T04:48:17.185Z,9.38
2023-04-01T04:49:19.896Z,9.38
2023-04-01T04:50:22.829Z,9.40
2023-04-01T04:51:25.401Z,9.39
2023-04-01T04:52:28.753Z,9.40
2023-04-01T04:53:31.514Z,9.36
2023-04-01T04:54:34.312Z,9.33
2023-04-01T04:55:37.819Z,9.34
2023-04-01T04:57:19.208Z,9.39
2023-04-01T04:58:29.918Z,9.43
2023-04-01T04:59:33.543Z,9.40
2023-04-01T05:00:51.819Z,9.44
2023-04-01T05:02:03.302Z,9.45
2023-04-01T05:03:06.270Z,9.44
2023-04-01T05:04:09.178Z,9.46
2023-04-01T05:05:11.527Z,9.47
2023-04-01T05:06:21.000Z,9.50
2023-04-01T05:07:25.302Z,9.52
2023-04-01T05:08:28.216Z,9.49
2023-04-01T05:09:30.024Z,9.47
2023-04-01T05:10:33.026Z,9.46
2023-04-01T05:11:35.058Z,9.43
2023-04-01T05:12:39.757Z,9.43
2023-04-01T05:13:45.539Z,9.39
2023-04-01T05:14:48.369Z,9.41
2023-04-01T05:15:50.244Z,9.43
2023-04-01T05:16:53.329Z,9.42
2023-04-01T05:17:55.386Z,9.40
2023-04-01T05:19:01.050Z,9.38
2023-04-01T05:20:03.395Z,9.39
2023-04-01T05:21:08.548Z,9.40
2023-04-01T05:22:10.693Z,9.44
2023-04-01T05:23:14.049Z,9.45
2023-04-01T05:24:16.007Z,9.45
2023-04-01T05:25:19.427Z,9.41
2023-04-01T05:26:21.302Z,9.44
2023-04-01T05:27:24.220Z,9.45
2023-04-01T05:28:26.239Z,9.47
2023-04-01T05:29:32.260Z,9.48
2023-04-01T05:30:43.064Z,9.36
2023-04-01T05:31:59.675Z,9.34
2023-04-01T05:33:02.553Z,9.36
2023-04-01T05:34:04.671Z,9.34
2023-04-01T05:35:08.673Z,9.35
2023-04-01T05:36:12.428Z,9.38
2023-04-01T05:37:15.384Z,9.41
2023-04-01T05:38:17.233Z,9.41
2023-04-01T05:39:20.183Z,9.43
2023-04-01T05:40:23.022Z,9.46
2023-04-01T05:41:26.147Z,9.46
2023-04-01T05:42:28.104Z,9.48
2023-04-01T05:43:31.518Z,9.41
2023-04-01T05:44:41.252Z,9.45
2023-04-01T05:45:44.049Z,9.46
2023-04-01T05:46:45.935Z,9.50
2023-04-01T05:47:57.805Z,9.51
2023-04-01T05:48:59.713Z,9.50
2023-04-01T05:50:03.490Z,9.53
2023-04-01T05:51:06.167Z,9.61
2023-04-01T05:52:10.429Z,9.67
2023-04-01T05:53:12.739Z,9.69
2023-04-01T05:54:19.255Z,9.70
2023-04-01T05:55:21.355Z,9.70
2023-04-01T05:56:25.388Z,9.68
2023-04-01T05:57:27.574Z,9.70
2023-04-01T05:58:30.505Z,9.67
2023-04-01T05:59:32.491Z,9.69
2023-04-01T06:00:37.266Z,9.74
2023-04-01T06:01:39.488Z,9.78
2023-04-01T06:02:43.028Z,9.76
2023-04-01T06:03:45.664Z,9.83
2023-04-01T06:04:49.107Z,9.86
2023-04-01T06:05:51.326Z,9.88
2023-04-01T06:06:54.341Z,9.90
2023-04-01T06:08:00.360Z,9.88
2023-04-01T06:09:14.244Z,9.91
2023-04-01T06:10:22.176Z,9.96
2023-04-01T06:11:36.848Z,9.97
2023-04-01T06:12:50.995Z,9.94
2023-04-01T06:14:09.264Z,9.91
2023-04-01T06:15:26.427Z,9.84
2023-04-01T06:16:37.555Z,9.85
2023-04-01T06:17:54.750Z,9.87
2023-04-01T06:19:12.048Z,9.88
2023-04-01T06:20:28.936Z,9.84
2023-04-01T06:21:46.750Z,9.92
2023-04-01T06:23:12.868Z,9.98
2023-04-01T06:24:35.416Z,10.01
2023-04-01T06:25:51.264Z,10.11
2023-04-01T06:27:02.606Z,10.20
2023-04-01T06:28:41.645Z,10.25
2023-04-01T06:29:56.564Z,10.22
2023-04-01T06:31:06.929Z,10.32
2023-04-01T06:32:32.288Z,10.39
2023-04-01T06:33:52.607Z,10.47
2023-04-01T06:35:18.196Z,10.50
2023-04-01T06:36:41.180Z,10.51
2023-04-01T06:38:11.005Z,10.73
2023-04-01T06:39:29.521Z,10.92
2023-04-01T06:40:51.504Z,11.04
2023-04-01T06:42:15.954Z,10.95
2023-04-01T06:43:26.722Z,11.01
2023-04-01T06:45:01.603Z,11.07
2023-04-01T06:46:45.723Z,11.09
2023-04-01T06:48:48.523Z,10.95
2023-04-01T06:50:22.642Z,10.98
2023-04-01T06:51:52.580Z,11.01
2023-04-01T06:53:18.969Z,11.08
2023-04-01T06:54:35.494Z,11.05
2023-04-01T06:55:44.108Z,11.12
2023-04-01T06:57:03.070Z,11.10
2023-04-01T06:58:11.921Z,11.08
2023-04-01T06:59:19.349Z,10.97
2023-04-01T07:00:30.980Z,10.83
2023-04-01T07:01:39.350Z,10.77
2023-04-01T07:02:46.457Z,10.74
2023-04-01T07:03:56.323Z,10.67
2023-04-01T07:05:01.321Z,10.75
2023-04-01T07:06:06.274Z,10.86
2023-04-01T07:07:19.422Z,10.89
2023-04-01T07:08:32.487Z,11.03
2023-04-01T07:09:40.846Z,11.09
2023-04-01T07:11:28.195Z,11.25
2023-04-01T07:12:55.189Z,11.27
2023-04-01T07:14:32.440Z,11.26
2023-04-01T07:15:40.490Z,11.28
2023-04-01T07:16:50.218Z,11.22
2023-04-01T07:17:56.686Z,11.17
2023-04-01T07:19:06.044Z,11.21
2023-04-01T07:20:29.410Z,11.17
2023-04-01T07:21:36.792Z,11.15
2023-04-01T07:22:51.781Z,11.10
2023-04-01T07:24:03.274Z,10.91
2023-04-01T07:25:16.620Z,10.87
2023-04-01T07:26:23.922Z,10.87
2023-04-01T07:27:35.840Z,10.91
2023-04-01T07:28:37.851Z,10.94
2023-04-01T07:29:53.177Z,10.92
2023-04-01T07:31:08.544Z,10.92
2023-04-01T07:32:30.177Z,10.79
2023-04-01T07:33:40.954Z,10.87
2023-04-01T07:34:57.853Z,10.86
2023-04-01T07:36:06.878Z,10.89
2023-04-01T07:37:14.303Z,10.85
2023-04-01T07:38:27.188Z,10.78
2023-04-01T07:39:39.186Z,10.80
2023-04-01T07:41:05.978Z,10.76
2023-04-01T07:42:16.978Z,10.77
2023-04-01T07:43:42.516Z,10.66
2023-04-01T07:45:07.017Z,10.61
2023-04-01T07:46:20.629Z,10.54
2023-04-01T07:47:45.741Z,10.56
2023-04-01T07:48:56.628Z,10.52
2023-04-01T07:50:10.625Z,10.53
2023-04-01T07:51:19.396Z,10.48
2023-04-01T07:52:29.141Z,10.48
2023-04-01T07:53:44.332Z,10.52
2023-04-01T07:54:51.113Z,10.49
2023-04-01T07:56:04.168Z,10.51
2023-04-01T07:57:16.820Z,10.41
2023-04-01T07:58:32.781Z,10.46
2023-04-01T07:59:47.152Z,10.44
2023-04-01T08:01:12.676Z,10.47
2023-04-01T08:02:31.261Z,10.47
2023-04-01T08:03:44.776Z,10.52
2023-04-01T08:05:02.886Z,10.54
2023-04-01T08:06:16.579Z,10.64
2023-04-01T08:07:21.930Z,10.61
2023-04-01T08:09:04.005Z,10.57
2023-04-01T08:10:34.955Z,10.63
2023-04-01T08:12:06.438Z,10.73
2023-04-01T08:13:39.570Z,10.81
2023-04-01T08:15:14.600Z,10.85
2023-04-01T08:16:25.414Z,10.91
2023-04-01T08:17:37.514Z,10.94
2023-04-01T08:18:49.104Z,10.99
2023-04-01T08:20:02.935Z,11.02
2023-04-01T08:21:16.704Z,11.06
2023-04-01T08:22:25.709Z,11.09
2023-04-01T08:23:32.936Z,11.12
2023-04-01T08:24:47.762Z,11.17
2023-04-01T08:26:04.482Z,11.23
2023-04-01T08:27:16.303Z,11.22
2023-04-01T08:28:25.070Z,11.18
2023-04-01T08:29:37.952Z,11.15
2023-04-01T08:30:45.855Z,11.08
2023-04-01T08:31:56.189Z,11.04
2023-04-01T08:33:02.675Z,10.99
2023-04-01T08:34:15.728Z,11.04
2023-04-01T08:35:28.900Z,11.06
2023-04-01T08:36:38.303Z,11.03
2023-04-01T08:37:51.450Z,11.02
2023-04-01T08:39:01.920Z,11.08
2023-04-01T08:40:28.705Z,11.11
2023-04-01T08:42:11.294Z,11.16
2023-04-01T08:43:48.130Z,11.20
2023-04-01T08:45:17.827Z,11.24
2023-04-01T08:46:46.442Z,11.27
2023-04-01T08:48:09.863Z,11.28
2023-04-01T08:49:34.264Z,11.26
2023-04-01T08:51:10.105Z,11.31
2023-04-01T08:52:30.845Z,11.34
2023-04-01T08:53:51.549Z,11.40
2023-04-01T08:55:24.609Z,11.40
2023-04-01T08:56:57.613Z,11.46
2023-04-01T08:58:30.550Z,11.50
2023-04-01T09:00:04.555Z,11.56
2023-04-01T09:01:43.759Z,11.49
2023-04-01T09:03:44.542Z,11.54
2023-04-01T09:05:09.677Z,11.55
2023-04-01T09:06:27.546Z,11.52
2023-04-01T09:07:42.365Z,11.52
2023-04-01T09:09:04.170Z,11.52
2023-04-01T09:10:26.536Z,11.52
2023-04-01T09:11:45.054Z,11.52
2023-04-01T09:13:28.236Z,11.47
2023-04-01T09:14:57.855Z,11.47
2023-04-01T09:16:28.641Z,11.47
2023-04-01T09:18:04.185Z,11.43
2023-04-01T09:19:21.693Z,11.37
2023-04-01T09:20:53.411Z,11.40
2023-04-01T09:22:11.459Z,11.42
2023-04-01T09:23:42.835Z,11.40
2023-04-01T09:25:17.223Z,11.43
2023-04-01T09:26:41.234Z,11.45
2023-04-01T09:27:51.324Z,11.48
2023-04-01T09:29:09.341Z,11.51
2023-04-01T09:30:43.458Z,11.48
2023-04-01T09:32:12.206Z,11.45
2023-04-01T09:34:07.948Z,11.45
2023-04-01T09:35:42.214Z,11.48
2023-04-01T09:36:48.555Z,11.51
2023-04-01T09:38:06.417Z,11.53
2023-04-01T09:39:28.969Z,11.53
2023-04-01T09:40:39.716Z,11.53
2023-04-01T09:42:00.263Z,11.47
2023-04-01T09:43:27.426Z,11.51
2023-04-01T09:44:35.346Z,11.53
2023-04-01T09:45:57.347Z,11.52
2023-04-01T09:47:17.320Z,11.44
2023-04-01T09:48:43.950Z,11.51
2023-04-01T09:50:01.920Z,11.46
2023-04-01T09:51:15.849Z,11.49
2023-04-01T09:52:30.749Z,11.47
2023-04-01T09:54:00.380Z,11.46
2023-04-01T09:55:58.370Z,11.47
2023-04-01T09:57:29.740Z,11.45
2023-04-01T09:59:09.668Z,11.48
2023-04-01T10:01:03.373Z,11.51
2023-04-01T10:02:39.529Z,11.54
2023-04-01T10:04:26.136Z,11.51
2023-04-01T10:06:00.787Z,11.52
2023-04-01T10:07:46.375Z,11.48
2023-04-01T10:09:33.732Z,11.45
2023-04-01T10:11:03.596Z,11.45
2023-04-01T10:12:49.370Z,11.39
2023-04-01T10:14:18.130Z,11.41
2023-04-01T10:16:02.184Z,11.42
2023-04-01T10:17:37.031Z,11.38
2023-04-01T10:19:10.561Z,11.37
2023-04-01T10:20:29.372Z,11.42
2023-04-01T10:22:01.920Z,11.44
2023-04-01T10:23:33.222Z,11.42
2023-04-01T10:25:20.857Z,11.41
2023-04-01T10:26:54.508Z,11.41
2023-04-01T10:29:04.903Z,11.34
2023-04-01T10:30:54.478Z,11.38
2023-04-01T10:32:31.548Z,11.33
2023-04-01T10:33:49.349Z,11.37
2023-04-01T10:35:12.532Z,11.36
2023-04-01T10:36:43.041Z,11.39
2023-04-01T10:38:47.678Z,11.38
2023-04-01T10:40:19.602Z,11.39
2023-04-01T10:42:06.652Z,11.38
2023-04-01T10:43:42.799Z,11.29
2023-04-01T10:45:28.806Z,11.33
2023-04-01T10:46:56.058Z,11.34
2023-04-01T10:48:15.202Z,11.33
2023-04-01T10:49:50.715Z,11.34
2023-04-01T10:51:13.555Z,11.26
2023-04-01T10:52:48.682Z,11.28
2023-04-01T10:54:22.527Z,11.26
2023-04-01T10:56:13.510Z,11.14
2023-04-01T10:58:00.984Z,11.25
2023-04-01T10:59:45.034Z,11.28
2023-04-01T11:01:40.973Z,11.28
2023-04-01T11:04:07.819Z,11.30
2023-04-01T11:05:54.554Z,11.25
2023-04-01T11:07:34.152Z,11.22
2023-04-01T11:09:26.522Z,11.23
2023-04-01T11:11:10.286Z,11.18
2023-04-01T11:12:43.838Z,11.19
2023-04-01T11:14:16.156Z,11.19
2023-04-01T11:15:56.841Z,11.24
2023-04-01T11:17:37.077Z,11.23
2023-04-01T11:19:20.550Z,11.19
2023-04-01T11:20:53.353Z,11.19
2023-04-01T11:22:11.217Z,11.24
2023-04-01T11:23:45.435Z,11.17
2023-04-01T11:25:14.027Z,11.10
2023-04-01T11:26:35.835Z,11.05
2023-04-01T11:28:10.251Z,11.04
2023-04-01T11:29:58.812Z,11.05
2023-04-01T11:31:26.789Z,11.01
2023-04-01T11:32:41.285Z,10.96
2023-04-01T11:33:50.487Z,10.94
2023-04-01T11:35:05.099Z,10.91
2023-04-01T11:36:20.693Z,10.84
2023-04-01T11:37:36.899Z,10.85
2023-04-01T11:39:13.332Z,10.89
2023-04-01T11:40:41.693Z,10.84
2023-04-01T11:42:22.725Z,10.82
2023-04-01T11:44:18.823Z,10.81
2023-04-01T11:45:41.574Z,10.83
2023-04-01T11:47:06.481Z,10.82
2023-04-01T11:48:32.160Z,10.82
2023-04-01T11:50:01.912Z,10.83
2023-04-01T11:51:32.745Z,10.86
2023-04-01T11:52:55.898Z,10.82
2023-04-01T11:54:06.371Z,10.84
2023-04-01T11:55:26.029Z,10.86
2023-04-01T11:56:40.819Z,10.82
2023-04-01T11:58:00.100Z,10.83
2023-04-01T11:59:33.943Z,10.82
2023-04-01T12:01:11.569Z,10.80
2023-04-01T12:02:22.982Z,10.77
2023-04-01T12:03:49.150Z,10.74
2023-04-01T12:05:13.671Z,10.70
2023-04-01T12:06:22.221Z,10.73
2023-04-01T12:07:47.662Z,10.77
2023-04-01T12:08:58.050Z,10.78
2023-04-01T12:10:14.643Z,11.06
2023-04-01T12:11:25.058Z,11.59
2023-04-01T12:12:39.062Z,11.53
2023-04-01T12:13:49.712Z,11.44
2023-04-01T12:15:05.198Z,11.38
2023-04-01T12:16:27.554Z,11.16
2023-04-01T12:17:38.828Z,11.08
2023-04-01T12:18:48.724Z,11.02
2023-04-01T12:19:59.227Z,10.94
2023-04-01T12:21:10.524Z,10.92
2023-04-01T12:22:33.928Z,10.81
2023-04-01T12:24:03.864Z,10.72
2023-04-01T12:25:24.815Z,10.68
2023-04-01T12:26:43.127Z,10.69
2023-04-01T12:28:01.618Z,10.65
2023-04-01T12:29:23.615Z,10.68
2023-04-01T12:30:55.399Z,10.71
2023-04-01T12:32:06.817Z,10.69
2023-04-01T12:33:42.566Z,10.73
2023-04-01T12:34:58.944Z,10.73
2023-04-01T12:36:11.834Z,10.79
2023-04-01T12:37:21.541Z,10.75
2023-04-01T12:38:33.549Z,10.73
2023-04-01T12:40:08.261Z,10.68
2023-04-01T12:41:16.405Z,10.65
2023-04-01T12:42:32.409Z,10.69
2023-04-01T12:44:07.530Z,10.74
2023-04-01T12:45:40.995Z,10.78
2023-04-01T12:47:02.122Z,10.83
2023-04-01T12:48:32.601Z,10.76
2023-04-01T12:49:59.953Z,10.75
2023-04-01T12:51:52.173Z,10.74
2023-04-01T12:53:12.357Z,10.76
2023-04-01T12:54:43.285Z,10.75
2023-04-01T12:55:46.577Z,10.76
2023-04-01T12:57:00.047Z,10.71
2023-04-01T12:58:45.952Z,10.74
2023-04-01T13:00:06.094Z,10.74
2023-04-01T13:01:47.051Z,10.77
2023-04-01T13:03:07.349Z,10.81
2023-04-01T13:04:36.814Z,10.75
2023-04-01T13:05:55.375Z,10.75
2023-04-01T13:07:15.648Z,10.73
2023-04-01T13:08:29.702Z,10.68
2023-04-01T13:09:42.302Z,10.78
2023-04-01T13:11:01.358Z,10.74
2023-04-01T13:12:20.412Z,10.77
2023-04-01T13:13:42.982Z,10.78
2023-04-01T13:15:14.439Z,10.69
2023-04-01T13:16:23.723Z,10.69
2023-04-01T13:17:32.964Z,10.62
2023-04-01T13:18:48.312Z,10.70
2023-04-01T13:20:06.164Z,10.68
2023-04-01T13:21:17.012Z,10.73
2023-04-01T13:22:26.084Z,10.73
2023-04-01T13:23:56.996Z,10.76
2023-04-01T13:25:08.257Z,10.76
2023-04-01T13:26:19.313Z,10.76
2023-04-01T13:27:27.607Z,10.73
2023-04-01T13:28:34.688Z,10.76
2023-04-01T13:29:40.696Z,10.71
2023-04-01T13:30:49.289Z,10.68
2023-04-01T13:32:13.085Z,10.66
2023-04-01T13:33:22.127Z,10.64
2023-04-01T13:34:39.964Z,10.68
2023-04-01T13:35:50.941Z,10.70
2023-04-01T13:37:05.583Z,10.63
2023-04-01T13:38:27.151Z,10.64
2023-04-01T13:39:38.055Z,10.67
2023-04-01T13:41:02.154Z,10.67
2023-04-01T13:42:16.914Z,10.67
2023-04-01T13:43:24.557Z,10.64
2023-04-01T13:44:36.247Z,10.66
2023-04-01T13:45:48.767Z,10.64
2023-04-01T13:47:11.302Z,10.65
2023-04-01T13:48:35.986Z,10.68
2023-04-01T13:50:19.148Z,10.71
2023-04-01T13:51:54.677Z,10.75
2023-04-01T13:53:13.219Z,10.77
2023-04-01T13:54:36.003Z,10.84
2023-04-01T13:55:54.506Z,10.83
2023-04-01T13:57:11.812Z,10.85
2023-04-01T13:58:45.936Z,10.84
2023-04-01T14:00:19.019Z,10.84
2023-04-01T14:01:33.567Z,10.80
2023-04-01T14:03:16.105Z,10.84
2023-04-01T14:04:42.852Z,10.83
2023-04-01T14:05:53.786Z,10.84
2023-04-01T14:07:18.400Z,10.84
2023-04-01T14:08:32.359Z,10.83
2023-04-01T14:09:47.746Z,10.79
2023-04-01T14:11:01.004Z,10.85
2023-04-01T14:12:08.439Z,10.82
2023-04-01T14:13:19.889Z,10.76
2023-04-01T14:14:37.439Z,10.79
2023-04-01T14:16:09.674Z,10.80
2023-04-01T14:17:40.317Z,10.81
2023-04-01T14:19:00.540Z,10.78
2023-04-01T14:20:24.685Z,10.84
2023-04-01T14:21:34.738Z,10.85
2023-04-01T14:22:43.839Z,10.84
2023-04-01T14:24:05.186Z,10.81
2023-04-01T14:25:39.360Z,10.80
2023-04-01T14:27:18.651Z,10.82
2023-04-01T14:28:31.711Z,10.81
2023-04-01T14:29:41.710Z,10.76
2023-04-01T14:31:04.849Z,10.78
2023-04-01T14:32:13.779Z,10.78
2023-04-01T14:33:29.429Z,10.78
2023-04-01T14:34:52.646Z,10.75
2023-04-01T14:36:09.513Z,10.79
2023-04-01T14:37:29.547Z,10.80
2023-04-01T14:38:50.143Z,10.81
2023-04-01T14:40:19.079Z,10.83
2023-04-01T14:41:36.918Z,10.85
2023-04-01T14:43:03.761Z,10.85
2023-04-01T14:44:47.710Z,10.95
2023-04-01T14:46:07.220Z,10.89
2023-04-01T14:47:42.445Z,10.83
2023-04-01T14:48:55.098Z,10.80
2023-04-01T14:50:08.574Z,10.77
2023-04-01T14:51:18.658Z,10.77
2023-04-01T14:52:28.938Z,10.72
2023-04-01T14:53:39.636Z,10.74
2023-04-01T14:54:45.430Z,10.74
2023-04-01T14:55:53.000Z,10.71
2023-04-01T14:57:13.110Z,10.68
2023-04-01T14:58:18.471Z,10.68
2023-04-01T14:59:29.946Z,10.66
2023-04-01T15:00:48.958Z,10.68
2023-04-01T15:01:58.226Z,10.67
2023-04-01T15:03:04.907Z,10.66
2023-04-01T15:04:25.311Z,10.68
2023-04-01T15:05:41.293Z,10.67
2023-04-01T15:07:06.902Z,10.67
2023-04-01T15:08:17.493Z,10.68
2023-04-01T15:09:28.606Z,10.68
2023-04-01T15:11:07.524Z,10.71
2023-04-01T15:12:24.837Z,10.65
2023-04-01T15:13:46.163Z,10.71
2023-04-01T15:15:00.214Z,10.73
2023-04-01T15:16:14.654Z,10.74
2023-04-01T15:17:33.762Z,10.74
2023-04-01T15:18:47.295Z,10.71
2023-04-01T15:20:04.524Z,10.71
2023-04-01T15:21:24.150Z,10.70
2023-04-01T15:22:41.601Z,10.65
2023-04-01T15:23:57.798Z,10.67
2023-04-01T15:25:18.248Z,10.67
2023-04-01T15:26:49.505Z,10.66
2023-04-01T15:27:57.698Z,10.63
2023-04-01T15:29:19.270Z,10.69
2023-04-01T15:30:32.637Z,10.70
2023-04-01T15:31:43.092Z,10.71
2023-04-01T15:32:58.686Z,10.70
2023-04-01T15:34:17.399Z,10.70
2023-04-01T15:35:37.119Z,10.68
2023-04-01T15:36:46.142Z,10.69
2023-04-01T15:37:56.548Z,10.68
2023-04-01T15:39:12.916Z,10.73
2023-04-01T15:40:24.768Z,10.73
2023-04-01T15:41:41.770Z,10.71
2023-04-01T15:42:57.900Z,10.75
2023-04-01T15:43:59.784Z,10.76
2023-04-01T15:45:18.919Z,10.75
2023-04-01T15:46:32.769Z,10.70
2023-04-01T15:47:46.653Z,10.74
2023-04-01T15:49:03.534Z,10.73
2023-04-01T15:50:37.604Z,10.70
2023-04-01T15:52:00.702Z,10.68
2023-04-01T15:53:19.678Z,10.67
2023-04-01T15:55:01.997Z,10.65
2023-04-01T15:56:20.415Z,10.68
2023-04-01T15:57:30.129Z,10.69
2023-04-01T15:58:49.906Z,10.69
2023-04-01T16:00:17.246Z,10.63
2023-04-01T16:01:35.735Z,10.65
2023-04-01T16:02:47.345Z,10.66
2023-04-01T16:03:56.611Z,10.67
2023-04-01T16:05:01.211Z,10.73
2023-04-01T16:06:19.333Z,10.75
2023-04-01T16:07:44.580Z,10.78
2023-04-01T16:09:04.430Z,10.79
2023-04-01T16:10:17.560Z,10.79
2023-04-01T16:11:31.555Z,10.81
2023-04-01T16:12:46.827Z,10.81
2023-04-01T16:14:04.788Z,10.76
2023-04-01T16:15:20.347Z,10.68
2023-04-01T16:16:36.669Z,10.68